Time;durP1;ratioP1;P1;durP2;ratioP2;P2;SDS_P1;SDS_P2;PMS_P1;PMS_P2;Temp;Humidity;BMP_temperature;BMP_pressure;BME280_temperature;BME280_humidity;BME280_pressure;Samples;Min_cycle;Max_cycle;Signal;HPM_P1;HPM_P2
2023/07/19 00:00:21;;;;;;;2.67;2.00;;;;;;;20.40;58.49;99379.88;5074042;28;20078;-87
2023/07/19 00:02:47;;;;;;;3.65;2.20;;;;;;;20.28;58.98;99359.00;5072561;28;20058;-87
2023/07/19 00:05:12;;;;;;;3.85;2.15;;;;;;;20.18;58.46;99349.28;5074104;28;20070;-86
2023/07/19 00:07:37;;;;;;;2.47;2.00;;;;;;;20.22;58.58;99360.38;5073739;28;20371;-87
2023/07/19 00:10:04;;;;;;;3.83;1.90;;;;;;;20.08;58.26;99348.41;5074006;28;20021;-86
2023/07/19 00:12:31;;;;;;;5.22;2.25;;;;;;;20.07;58.18;99344.13;5072515;28;20399;-87
2023/07/19 00:14:57;;;;;;;3.17;1.90;;;;;;;20.07;58.19;99343.28;5074102;28;20028;-87
2023/07/19 00:17:23;;;;;;;3.33;2.30;;;;;;;20.14;58.31;99347.88;5073964;28;20021;-87
2023/07/19 00:19:48;;;;;;;2.40;1.77;;;;;;;20.21;58.11;99355.22;5073676;28;20059;-87
2023/07/19 00:22:13;;;;;;;4.95;1.90;;;;;;;20.00;58.08;99328.94;5073945;28;20095;-87
2023/07/19 00:24:39;;;;;;;3.70;2.10;;;;;;;19.97;58.21;99319.47;5073664;28;20017;-87
2023/07/19 00:27:04;;;;;;;2.03;1.85;;;;;;;20.06;58.06;99333.69;5074279;28;20021;-87
2023/07/19 00:29:30;;;;;;;1.77;1.63;;;;;;;19.88;58.72;99302.63;5073658;28;20024;-87
2023/07/19 00:31:55;;;;;;;2.47;1.85;;;;;;;20.06;58.48;99334.53;5073640;28;20074;-87
2023/07/19 00:34:21;;;;;;;2.10;1.90;;;;;;;20.08;57.90;99339.66;5073567;28;20040;-87
2023/07/19 00:36:46;;;;;;;3.30;2.30;;;;;;;19.86;58.85;99304.59;5073396;28;20032;-87
2023/07/19 00:39:12;;;;;;;2.53;2.00;;;;;;;20.10;58.27;99332.41;5071818;28;20029;-87
2023/07/19 00:41:37;;;;;;;3.22;2.25;;;;;;;20.16;58.49;99339.78;5073439;28;20110;-86
2023/07/19 00:44:03;;;;;;;2.28;1.70;;;;;;;19.97;58.12;99310.72;5073622;28;20024;-87
2023/07/19 00:46:29;;;;;;;3.03;1.92;;;;;;;19.97;58.22;99308.91;5073061;28;20082;-87
2023/07/19 00:48:55;;;;;;;2.05;1.80;;;;;;;20.14;58.38;99325.88;5071930;28;20029;-87
2023/07/19 00:51:21;;;;;;;2.50;1.75;;;;;;;19.98;58.10;99300.00;5073204;28;20029;-87
2023/07/19 00:53:48;;;;;;;2.15;1.80;;;;;;;20.19;58.27;99334.22;5072648;28;20028;-87
2023/07/19 00:56:14;;;;;;;5.78;1.92;;;;;;;19.91;58.57;99294.44;5071846;28;20020;-87
2023/07/19 00:58:40;;;;;;;6.07;2.72;;;;;;;20.12;58.66;99320.72;5072793;28;20078;-87
2023/07/19 01:01:06;;;;;;;4.40;2.00;;;;;;;20.00;58.94;99305.97;5073189;28;20074;-87
2023/07/19 01:03:31;;;;;;;3.10;1.75;;;;;;;19.89;59.64;99285.00;5072769;28;20419;-86
2023/07/19 01:05:58;;;;;;;2.35;2.10;;;;;;;19.89;60.05;99299.03;5072817;28;20024;-87
2023/07/19 01:08:24;;;;;;;2.10;1.90;;;;;;;19.73;60.57;99280.25;5072944;28;20054;-87
2023/07/19 01:10:51;;;;;;;2.60;2.03;;;;;;;19.81;61.29;99292.78;5072646;28;20111;-87
2023/07/19 01:13:16;;;;;;;3.53;2.22;;;;;;;19.81;61.16;99304.19;5071605;28;20024;-87
2023/07/19 01:15:41;;;;;;;3.35;2.00;;;;;;;19.71;61.12;99286.66;5072884;28;20032;-87
2023/07/19 01:18:07;;;;;;;3.88;2.00;;;;;;;19.67;62.45;99294.00;5072640;28;20024;-87
2023/07/19 01:20:33;;;;;;;2.15;1.90;;;;;;;19.63;63.35;99292.63;5072459;28;20074;-87
2023/07/19 01:22:58;;;;;;;1.77;1.58;;;;;;;19.61;63.35;99300.69;5090083;28;20064;-86
2023/07/19 01:25:24;;;;;;;2.00;1.80;;;;;;;19.49;63.47;99267.41;5090383;28;20071;-87
2023/07/19 01:27:49;;;;;;;5.15;2.35;;;;;;;19.31;63.63;99253.22;5090333;28;20043;-87
2023/07/19 01:30:15;;;;;;;1.90;1.70;;;;;;;19.54;63.72;99302.16;5090270;28;20068;-86
2023/07/19 01:32:41;;;;;;;2.22;2.03;;;;;;;19.48;64.25;99293.97;5089910;28;20063;-87
2023/07/19 01:35:06;;;;;;;2.85;2.30;;;;;;;19.18;64.04;99258.75;5090244;28;20415;-87
2023/07/19 01:37:32;;;;;;;3.35;1.85;;;;;;;19.26;64.81;99287.97;5089758;28;20032;-87
2023/07/19 01:40:00;;;;;;;2.25;1.80;;;;;;;19.20;65.13;99281.41;5089992;28;20122;-86
2023/07/19 01:42:26;;;;;;;2.53;1.85;;;;;;;19.19;65.03;99303.50;5090385;28;20050;-87
2023/07/19 01:44:51;;;;;;;2.30;2.10;;;;;;;19.08;64.94;99294.84;5089992;28;20032;-87
2023/07/19 01:47:17;;;;;;;2.10;1.90;;;;;;;18.91;65.49;99269.91;5090097;28;20089;-87
2023/07/19 01:49:42;;;;;;;2.78;1.85;;;;;;;19.09;66.67;99309.72;5088994;28;20036;-87
2023/07/19 01:52:07;;;;;;;2.65;2.00;;;;;;;18.93;66.99;99281.19;5089780;28;20103;-87
2023/07/19 01:54:33;;;;;;;2.55;1.52;;;;;;;18.78;67.17;99278.06;5076374;28;20119;-87
2023/07/19 01:56:59;;;;;;;2.83;2.08;;;;;;;18.92;67.02;99304.09;5072251;28;20028;-87
2023/07/19 01:59:24;;;;;;;3.45;2.00;;;;;;;18.99;67.70;99301.75;5071205;28;20111;-87
2023/07/19 02:01:49;;;;;;;3.33;1.95;;;;;;;18.88;67.75;99278.13;5070768;28;20029;-87
2023/07/19 02:04:15;;;;;;;1.92;1.75;;;;;;;18.78;67.63;99262.22;5072252;28;20032;-87
2023/07/19 02:06:40;;;;;;;2.42;2.20;;;;;;;18.75;67.97;99259.03;5071845;28;20119;-86
2023/07/19 02:09:06;;;;;;;2.25;1.70;;;;;;;18.95;68.17;99289.78;5070660;28;20461;-87
2023/07/19 02:11:31;;;;;;;3.42;2.22;;;;;;;18.79;68.66;99268.34;5072170;28;20028;-87
2023/07/19 02:13:57;;;;;;;2.85;1.80;;;;;;;19.00;68.67;99292.88;5070692;28;20032;-87
2023/07/19 02:16:22;;;;;;;2.40;1.48;;;;;;;18.87;68.63;99265.88;5071704;28;20024;-88
2023/07/19 02:18:47;;;;;;;2.05;1.85;;;;;;;19.04;68.58;99301.34;5070276;28;20024;-87
2023/07/19 02:21:13;;;;;;;5.35;2.10;;;;;;;18.92;69.05;99285.63;5071896;28;20029;-87
2023/07/19 02:23:38;;;;;;;3.53;2.20;;;;;;;18.70;68.89;99254.97;5070632;28;20468;-87
2023/07/19 02:26:03;;;;;;;3.13;2.25;;;;;;;18.70;69.14;99257.63;5072080;28;20479;-87
2023/07/19 02:28:29;;;;;;;1.92;1.50;;;;;;;18.83;69.18;99283.78;5072216;28;20082;-87
2023/07/19 02:30:54;;;;;;;2.50;2.00;;;;;;;18.69;69.69;99263.00;5071876;28;20036;-87
2023/07/19 02:33:20;;;;;;;2.20;1.70;;;;;;;18.49;69.51;99240.97;5071768;28;20025;-87
2023/07/19 02:35:52;;;;;;;2.00;1.75;;;;;;;18.81;69.60;99298.91;5071564;28;20036;-87
2023/07/19 02:38:18;;;;;;;2.75;2.00;;;;;;;18.78;69.81;99285.16;5071994;28;20027;-87
2023/07/19 02:40:43;;;;;;;2.40;1.70;;;;;;;18.71;70.44;99274.31;5070127;28;20041;-87
2023/07/19 02:43:08;;;;;;;3.53;2.15;;;;;;;18.60;70.71;99259.34;5070513;28;20028;-87
2023/07/19 02:45:35;;;;;;;2.55;1.73;;;;;;;18.59;71.14;99262.97;5071552;28;20047;-87
2023/07/19 02:48:00;;;;;;;2.95;2.00;;;;;;;18.44;71.07;99237.91;5071569;28;20060;-87
2023/07/19 02:50:25;;;;;;;3.60;1.98;;;;;;;18.69;71.08;99284.09;5070154;28;20443;-87
2023/07/19 02:52:51;;;;;;;4.90;2.28;;;;;;;18.56;71.61;99257.13;5071855;28;20029;-87
2023/07/19 02:55:16;;;;;;;3.42;2.13;;;;;;;18.72;72.16;99293.59;5071823;28;20107;-87
2023/07/19 02:57:41;;;;;;;3.20;1.92;;;;;;;18.51;71.78;99260.16;5071415;28;20101;-87
2023/07/19 03:00:07;;;;;;;2.38;1.98;;;;;;;18.49;71.89;99266.50;5071851;28;20028;-86
2023/07/19 03:02:33;;;;;;;3.05;2.33;;;;;;;18.56;72.20;99272.94;5075319;28;20033;-87
2023/07/19 03:04:58;;;;;;;2.20;2.00;;;;;;;18.54;72.88;99262.53;5074819;28;20078;-86
2023/07/19 03:07:24;;;;;;;2.60;1.88;;;;;;;18.38;72.85;99247.19;5075327;28;20017;-87
2023/07/19 03:09:49;;;;;;;2.78;2.20;;;;;;;18.55;73.60;99282.66;5073679;28;20028;-86
2023/07/19 03:12:15;;;;;;;3.38;1.95;;;;;;;18.60;73.65;99284.91;5075355;28;20035;-86
2023/07/19 03:14:41;;;;;;;2.55;1.90;;;;;;;18.39;73.10;99242.75;5073665;28;20133;-87
2023/07/19 03:17:06;;;;;;;5.47;2.30;;;;;;;18.58;73.13;99277.13;5075028;28;20025;-87
2023/07/19 03:19:31;;;;;;;4.28;2.88;;;;;;;18.48;73.25;99256.94;5074989;28;20052;-86
2023/07/19 03:21:57;;;;;;;4.30;2.42;;;;;;;18.56;73.08;99279.06;5074819;28;20028;-87
2023/07/19 03:24:22;;;;;;;2.80;2.50;;;;;;;18.52;73.18;99269.72;5074879;28;20029;-86
2023/07/19 03:26:47;;;;;;;4.38;2.58;;;;;;;18.52;74.46;99280.28;5074464;28;20021;-86
2023/07/19 03:29:13;;;;;;;10.45;3.40;;;;;;;18.48;75.30;99276.22;5074734;28;20392;-87
2023/07/19 03:31:38;;;;;;;2.15;1.95;;;;;;;18.52;76.04;99288.19;5074376;28;20024;-87
2023/07/19 03:34:03;;;;;;;3.17;2.28;;;;;;;18.32;75.77;99255.59;5074533;28;20024;-87
2023/07/19 03:36:29;;;;;;;3.50;2.22;;;;;;;18.40;75.51;99276.03;5074507;28;20032;-86
2023/07/19 03:38:54;;;;;;;7.28;2.50;;;;;;;18.40;75.42;99276.88;5074592;28;20037;-87
2023/07/19 03:41:19;;;;;;;4.75;2.97;;;;;;;18.35;76.04;99265.06;5074524;28;20084;-87
2023/07/19 03:43:45;;;;;;;3.85;2.78;;;;;;;18.30;76.28;99260.19;5074494;28;20036;-86
2023/07/19 03:46:10;;;;;;;3.78;2.30;;;;;;;18.55;76.27;99295.03;5073305;28;20035;-86
2023/07/19 03:48:37;;;;;;;4.57;2.17;;;;;;;18.53;77.07;99283.75;5073522;28;20032;-87
2023/07/19 03:51:03;;;;;;;2.70;2.22;;;;;;;18.50;77.05;99269.03;5072795;28;20480;-87
2023/07/19 03:53:29;;;;;;;4.55;2.45;;;;;;;18.65;76.58;99282.69;5074328;28;20043;-87
2023/07/19 03:55:59;;;;;;;4.85;2.58;;;;;;;18.48;76.10;99241.94;5072834;28;20035;-87
2023/07/19 03:58:26;;;;;;;2.85;2.50;;;;;;;18.67;75.87;99263.16;5074094;28;20024;-87
2023/07/19 04:00:59;;;;;;;2.90;2.40;;;;;;;18.81;75.59;99283.09;5073893;28;20103;-87
2023/07/19 04:03:26;;;;;;;3.05;2.35;;;;;;;18.65;76.01;99258.97;5074327;28;20033;-87
2023/07/19 04:05:53;;;;;;;3.58;2.30;;;;;;;18.65;75.30;99259.78;5072793;28;20422;-87
2023/07/19 04:08:18;;;;;;;3.80;2.63;;;;;;;18.63;74.80;99245.09;5074134;28;20090;-87
2023/07/19 04:10:44;;;;;;;3.38;2.40;;;;;;;18.73;75.32;99247.78;5073944;28;20024;-86
2023/07/19 04:13:13;;;;;;;2.85;1.77;;;;;;;18.94;75.59;99275.78;5073243;28;20093;-87
2023/07/19 04:15:39;;;;;;;2.28;2.08;;;;;;;18.88;75.88;99251.75;5072423;28;20100;-87
2023/07/19 04:18:04;;;;;;;4.03;2.20;;;;;;;18.92;75.48;99246.06;5073524;28;20590;-87
2023/07/19 04:20:30;;;;;;;5.25;2.70;;;;;;;19.36;75.72;99283.53;5073650;28;20162;-87
2023/07/19 04:22:56;;;;;;;3.33;2.20;;;;;;;19.50;75.97;99255.03;5073491;28;20062;-87
2023/07/19 04:25:21;;;;;;;3.78;2.63;;;;;;;19.86;73.86;99274.69;5073638;28;20028;-87
2023/07/19 04:27:47;;;;;;;5.40;2.75;;;;;;;20.07;72.53;99270.09;5071964;28;20178;-87
2023/07/19 04:30:13;;;;;;;4.35;2.25;;;;;;;19.99;72.36;99261.19;5073814;28;20021;-87
2023/07/19 04:32:38;;;;;;;5.40;2.55;;;;;;;20.13;72.51;99258.09;5073234;28;20028;-87
2023/07/19 04:35:04;;;;;;;1.98;1.67;;;;;;;20.46;70.97;99259.41;5073746;28;20033;-87
2023/07/19 04:37:30;;;;;;;3.40;2.35;;;;;;;20.58;69.64;99252.19;5073716;28;20028;-87
2023/07/19 04:39:55;;;;;;;3.83;2.30;;;;;;;20.91;68.81;99271.97;5072808;28;20073;-87
2023/07/19 04:42:24;;;;;;;2.75;2.22;;;;;;;21.09;68.69;99261.41;5073303;28;20109;-87
2023/07/19 04:44:49;;;;;;;4.85;2.22;;;;;;;21.46;68.48;99268.47;5072895;28;20025;-87
2023/07/19 04:47:15;;;;;;;2.60;1.80;;;;;;;21.45;68.03;99241.16;5071669;28;20078;-87
2023/07/19 04:49:40;;;;;;;3.50;2.13;;;;;;;21.67;67.03;99258.41;5073312;28;20086;-87
2023/07/19 04:52:06;;;;;;;2.08;1.88;;;;;;;21.50;65.74;99235.38;5072662;28;20108;-87
2023/07/19 04:54:32;;;;;;;2.95;2.13;;;;;;;21.47;65.45;99254.22;5073184;28;20027;-87
2023/07/19 04:56:58;;;;;;;4.90;2.35;;;;;;;21.27;65.98;99256.13;5072938;28;20051;-87
2023/07/19 04:59:23;;;;;;;2.85;2.00;;;;;;;21.31;65.53;99268.09;5073167;28;20025;-87
2023/07/19 05:01:48;;;;;;;2.88;2.15;;;;;;;21.35;65.04;99269.50;5072544;28;20025;-87
2023/07/19 05:04:14;;;;;;;2.40;2.20;;;;;;;21.47;63.93;99254.22;5073007;28;20063;-87
2023/07/19 05:06:39;;;;;;;4.35;1.92;;;;;;;21.73;62.00;99271.03;5071596;28;20028;-87
2023/07/19 05:09:08;;;;;;;2.22;2.00;;;;;;;21.65;63.25;99236.50;5072628;28;20025;-87
2023/07/19 05:11:34;;;;;;;2.00;1.80;;;;;;;21.83;64.65;99265.69;5072746;28;20112;-87
2023/07/19 05:13:59;;;;;;;3.25;2.22;;;;;;;21.75;66.26;99239.91;5072202;28;20112;-87
2023/07/19 05:16:25;;;;;;;2.80;2.00;;;;;;;21.87;68.37;99269.69;5072245;28;20036;-87
2023/07/19 05:18:51;;;;;;;4.45;2.33;;;;;;;21.76;68.99;99252.19;5071365;28;20376;-87
2023/07/19 05:21:16;;;;;;;4.43;2.67;;;;;;;21.92;69.07;99265.56;5072535;28;20020;-88
2023/07/19 05:23:41;;;;;;;3.15;2.40;;;;;;;21.90;68.79;99253.44;5072477;28;20113;-88
2023/07/19 05:26:07;;;;;;;3.92;2.92;;;;;;;21.92;69.21;99267.41;5070955;28;20507;-88
2023/07/19 05:28:32;;;;;;;5.13;2.75;;;;;;;21.85;69.27;99255.72;5072390;28;20016;-87
2023/07/19 05:31:04;;;;;;;5.38;3.08;;;;;;;21.84;69.51;99268.16;5072025;28;20024;-88
2023/07/19 05:33:32;;;;;;;6.28;2.75;;;;;;;21.76;70.19;99261.97;5072404;28;20028;-88
2023/07/19 05:35:58;;;;;;;3.03;2.60;;;;;;;21.61;70.15;99241.28;5072005;28;20060;-87
2023/07/19 05:38:23;;;;;;;5.18;3.13;;;;;;;21.79;70.14;99266.97;5072331;28;20047;-88
2023/07/19 05:40:49;;;;;;;3.88;2.40;;;;;;;21.78;69.87;99239.59;5071775;28;20076;-87
2023/07/19 05:43:15;;;;;;;4.93;2.92;;;;;;;22.11;69.26;99247.81;5072434;28;20492;-88
2023/07/19 05:45:40;;;;;;;3.67;3.35;;;;;;;22.44;67.36;99234.78;5072366;28;20110;-88
2023/07/19 05:48:06;;;;;;;3.75;3.45;;;;;;;23.07;66.46;99263.66;5070749;28;20028;-87
2023/07/19 05:50:31;;;;;;;4.03;3.63;;;;;;;23.47;65.39;99249.66;5089588;28;20384;-88
2023/07/19 05:52:57;;;;;;;4.53;2.70;;;;;;;23.89;63.56;99249.53;5089417;28;20032;-87
2023/07/19 05:55:23;;;;;;;4.10;3.28;;;;;;;24.12;63.08;99236.38;5089632;28;20147;-87
2023/07/19 05:57:49;;;;;;;5.45;3.15;;;;;;;24.16;62.45;99204.94;5089617;28;20077;-88
2023/07/19 06:00:28;;;;;;;6.35;4.10;;;;;;;24.57;60.57;99242.13;5089524;28;20263;-87
2023/07/19 06:02:56;;;;;;;6.78;4.40;;;;;;;24.73;57.96;99255.38;5089407;28;20155;-88
2023/07/19 06:05:24;;;;;;;4.07;3.38;;;;;;;24.82;56.17;99254.38;5089674;28;20605;-88
2023/07/19 06:07:50;;;;;;;3.63;3.05;;;;;;;24.80;56.99;99215.56;5089395;28;20040;-88
2023/07/19 06:10:16;;;;;;;3.70;3.30;;;;;;;25.06;54.50;99229.44;5089611;28;20059;-89
2023/07/19 06:12:43;;;;;;;3.90;3.25;;;;;;;25.39;53.69;99223.94;5089483;28;20157;-88
2023/07/19 06:15:08;;;;;;;3.35;3.00;;;;;;;25.90;53.61;99247.41;5089253;28;20687;-88
2023/07/19 06:17:34;;;;;;;3.17;2.88;;;;;;;26.17;52.79;99238.84;5089546;28;20034;-89
2023/07/19 06:20:00;;;;;;;3.78;3.22;;;;;;;26.50;52.43;99241.19;5089173;28;20042;-88
2023/07/19 06:22:25;;;;;;;5.05;3.30;;;;;;;26.87;51.45;99246.41;5073970;28;20047;-87
2023/07/19 06:24:50;;;;;;;2.80;2.50;;;;;;;26.95;47.37;99231.31;5070248;28;20024;-89
2023/07/19 06:27:16;;;;;;;3.05;2.40;;;;;;;26.96;47.69;99230.28;5070300;28;20025;-89
2023/07/19 06:29:42;;;;;;;4.70;2.72;;;;;;;27.17;47.78;99222.34;5071923;28;20031;-89
2023/07/19 06:32:08;;;;;;;2.85;2.42;;;;;;;27.45;47.10;99230.47;5071428;28;20103;-89
2023/07/19 06:34:33;;;;;;;2.53;2.10;;;;;;;27.78;46.92;99243.38;5071800;28;20021;-89
2023/07/19 06:36:58;;;;;;;2.63;2.20;;;;;;;27.91;46.21;99227.41;5074704;28;20028;-89
2023/07/19 06:39:24;;;;;;;3.30;2.30;;;;;;;28.41;45.31;99227.41;5075962;28;20032;-89
2023/07/19 06:41:49;;;;;;;2.95;2.65;;;;;;;29.17;44.67;99233.53;5075009;28;20056;-89
2023/07/19 06:44:14;;;;;;;3.85;2.53;;;;;;;30.08;44.08;99230.34;5075345;28;20032;-89
2023/07/19 06:46:40;;;;;;;2.67;2.22;;;;;;;31.52;42.32;99221.19;5075504;28;20122;-89
2023/07/19 06:49:05;;;;;;;2.72;2.25;;;;;;;32.65;41.39;99217.53;5075142;28;20052;-89
2023/07/19 06:51:30;;;;;;;2.40;2.00;;;;;;;32.96;40.65;99230.06;5075315;28;20029;-89
2023/07/19 06:53:56;;;;;;;3.72;2.28;;;;;;;32.90;41.29;99203.94;5074937;28;20017;-89
2023/07/19 06:56:21;;;;;;;2.53;2.20;;;;;;;33.20;40.45;99212.06;5073842;28;20024;-89
2023/07/19 06:58:46;;;;;;;2.35;2.10;;;;;;;33.28;39.81;99222.56;5075637;28;20101;-91
2023/07/19 07:01:12;;;;;;;3.35;2.67;;;;;;;33.47;39.86;99216.09;5073591;28;20149;-91
2023/07/19 07:03:37;;;;;;;2.50;2.25;;;;;;;33.93;39.33;99203.69;5086210;28;20090;-90
2023/07/19 07:06:02;;;;;;;3.67;2.17;;;;;;;35.04;38.87;99206.41;5093415;28;20028;-91
2023/07/19 07:08:28;;;;;;;2.20;2.00;;;;;;;36.24;37.91;99217.94;5093936;28;20031;-91
2023/07/19 07:10:53;;;;;;;3.75;2.00;;;;;;;36.99;37.11;99211.06;5092501;28;20024;-91
2023/07/19 07:13:19;;;;;;;2.97;2.10;;;;;;;37.89;36.49;99209.50;5093009;28;20107;-91
2023/07/19 07:15:44;;;;;;;2.53;2.33;;;;;;;39.16;36.06;99203.06;5094987;28;20115;-91
2023/07/19 07:18:10;;;;;;;2.20;2.00;;;;;;;40.58;34.54;99204.91;5094830;28;20024;-91
2023/07/19 07:20:35;;;;;;;3.00;2.70;;;;;;;41.52;33.20;99207.66;5093065;28;20043;-91
2023/07/19 07:23:01;;;;;;;2.55;2.30;;;;;;;42.44;33.52;99203.25;5094381;28;20105;-91
2023/07/19 07:25:26;;;;;;;2.70;2.50;;;;;;;43.37;33.34;99206.38;5094212;28;20097;-91
2023/07/19 07:27:51;;;;;;;2.30;2.10;;;;;;;43.88;32.82;99211.88;5094565;28;20029;-91
2023/07/19 07:30:19;;;;;;;4.03;2.30;;;;;;;44.43;32.29;99209.19;5093716;28;20069;-92
2023/07/19 07:32:45;;;;;;;2.28;2.17;;;;;;;44.96;31.86;99216.03;5093432;28;20058;-91
2023/07/19 07:35:10;;;;;;;2.80;2.50;;;;;;;45.29;32.30;99219.41;5092650;28;20399;-91
2023/07/19 07:37:35;;;;;;;2.50;2.38;;;;;;;45.61;31.84;99210.16;5093828;28;20028;-92
2023/07/19 07:40:00;;;;;;;3.10;2.80;;;;;;;45.93;32.16;99206.28;5093774;28;20144;-92
2023/07/19 07:42:26;;;;;;;2.95;2.58;;;;;;;46.08;32.33;99207.81;5093252;28;20067;-90
2023/07/19 07:44:52;;;;;;;3.08;2.72;;;;;;;46.43;31.97;99214.28;5094100;28;20032;-90
2023/07/19 07:47:17;;;;;;;2.60;2.40;;;;;;;46.58;32.23;99212.25;5091702;28;20028;-91
2023/07/19 07:49:43;;;;;;;3.55;3.25;;;;;;;46.74;31.56;99216.19;5094682;28;20020;-91
2023/07/19 07:52:11;;;;;;;2.90;2.65;;;;;;;46.84;31.46;99199.31;5092726;28;20039;-90
2023/07/19 07:54:36;;;;;;;3.00;2.80;;;;;;;47.00;31.29;99213.47;5094307;28;20028;-91
2023/07/19 07:57:02;;;;;;;2.72;2.53;;;;;;;47.08;31.38;99201.63;5094233;28;20031;-91
2023/07/19 07:59:27;;;;;;;3.30;3.05;;;;;;;47.12;31.51;99202.63;5092993;28;20035;-88
2023/07/19 08:01:52;;;;;;;2.70;2.50;;;;;;;46.87;31.73;99200.63;5094767;28;20020;-93
2023/07/19 08:04:18;;;;;;;2.80;2.60;;;;;;;46.74;31.51;99199.66;5092878;28;20559;-93
2023/07/19 08:06:43;;;;;;;2.58;2.38;;;;;;;45.95;31.27;99186.72;5092999;28;20028;-89
2023/07/19 08:09:09;;;;;;;3.22;2.78;;;;;;;44.37;31.71;99204.09;5094993;28;20024;-92
2023/07/19 08:11:34;;;;;;;2.80;2.60;;;;;;;43.75;32.96;99194.25;5091819;28;20063;-87
2023/07/19 08:31:42;;;;;;;2.45;2.25;;;;;;;36.63;35.12;99186.22;5093964;28;20098;-95
2023/07/19 09:37:21;;;;;;;4.60;2.60;;;;;;;30.19;45.10;99113.44;5092759;28;20047;-95
2023/07/19 09:41:05;;;;;;;3.72;2.72;;;;;;;30.20;44.79;99104.34;5110426;28;20059;-96
2023/07/19 10:00:35;;;;;;;3.22;2.80;;;;;;;30.06;44.60;99090.91;4990847;28;20157;-96
2023/07/19 10:04:05;;;;;;;3.47;2.75;;;;;;;29.95;44.74;99075.44;4913573;29;20051;-95
2023/07/19 10:07:03;;;;;;;3.88;2.97;;;;;;;29.96;45.13;99070.91;4838736;29;20061;-96
2023/07/19 10:10:34;;;;;;;4.30;2.53;;;;;;;30.07;45.36;99083.69;4820563;29;20053;-95
2023/07/19 10:14:11;;;;;;;3.38;3.00;;;;;;;30.09;45.60;99073.56;4784488;30;20508;-96
2023/07/19 10:17:48;;;;;;;5.72;2.63;;;;;;;30.04;44.40;99058.09;4693337;30;20043;-96
2023/07/19 10:21:20;;;;;;;5.55;2.67;;;;;;;30.08;45.62;99063.84;4679283;30;20038;-96
2023/07/19 10:24:30;;;;;;;3.05;2.67;;;;;;;30.24;45.84;99068.78;4661957;30;20046;-95
2023/07/19 10:27:36;;;;;;;3.38;2.97;;;;;;;30.32;45.87;99062.34;4678686;30;20042;-95
2023/07/19 10:30:08;;;;;;;2.70;2.50;;;;;;;30.26;45.83;99047.09;4643013;30;20125;-96
2023/07/19 10:33:15;;;;;;;4.85;3.15;;;;;;;30.46;45.58;99063.91;4661774;30;20480;-95
2023/07/19 10:36:27;;;;;;;4.35;3.25;;;;;;;30.50;44.68;99067.00;4652040;30;20076;-94
2023/07/19 10:39:38;;;;;;;3.30;2.75;;;;;;;30.45;45.03;99056.09;4645241;30;20043;-94
2023/07/19 10:42:25;;;;;;;5.10;2.70;;;;;;;30.50;44.12;99049.00;4614235;31;20051;-95
2023/07/19 10:45:14;;;;;;;3.83;3.05;;;;;;;30.55;43.74;99062.66;4611571;31;20043;-95
2023/07/19 10:48:01;;;;;;;2.40;2.15;;;;;;;30.17;43.61;99051.03;4604868;31;20067;-95
2023/07/19 10:50:55;;;;;;;4.28;3.08;;;;;;;30.03;45.76;99026.88;4633157;30;20063;-94
2023/07/19 10:53:40;;;;;;;3.17;2.88;;;;;;;30.27;45.32;99046.06;4628406;31;20635;-95
2023/07/19 10:57:08;;;;;;;4.40;3.22;;;;;;;30.37;44.46;99042.91;4623457;31;20043;-93
2023/07/19 11:00:33;;;;;;;4.57;3.08;;;;;;;30.45;44.57;99042.66;4654037;30;20472;-94
2023/07/19 11:03:23;;;;;;;4.57;3.03;;;;;;;30.53;44.99;99042.41;4633310;30;20043;-93
2023/07/19 11:06:09;;;;;;;4.65;2.88;;;;;;;30.53;44.74;99043.22;4630167;31;20083;-93
2023/07/19 11:09:23;;;;;;;7.35;2.85;;;;;;;30.54;44.27;99044.03;4628289;30;20055;-93
2023/07/19 11:12:51;;;;;;;2.83;2.40;;;;;;;30.64;45.29;99030.97;4571249;31;20038;-94
2023/07/19 11:16:02;;;;;;;3.42;2.70;;;;;;;30.60;44.95;99002.06;4636407;30;20047;-93
2023/07/19 11:19:28;;;;;;;2.88;2.47;;;;;;;30.69;44.78;99011.50;4620888;31;20047;-93
2023/07/19 11:22:36;;;;;;;3.03;2.60;;;;;;;30.92;43.64;99024.38;4593515;31;20105;-94
2023/07/19 11:25:46;;;;;;;3.17;2.88;;;;;;;30.95;43.81;99000.56;4551373;31;20058;-93
2023/07/19 11:28:41;;;;;;;3.05;2.75;;;;;;;31.06;42.40;99013.31;4580863;31;20090;-94
2023/07/19 11:31:07;;;;;;;3.17;2.67;;;;;;;30.83;42.82;98993.44;4574865;31;20404;-93
2023/07/19 11:33:53;;;;;;;2.85;2.65;;;;;;;31.05;43.29;99011.66;4578805;31;20058;-93
2023/07/19 11:36:46;;;;;;;3.47;2.75;;;;;;;31.08;42.46;98999.63;4608883;31;20036;-95
2023/07/19 11:39:38;;;;;;;4.57;2.80;;;;;;;30.63;42.34;98950.53;4557312;31;20056;-94
2023/07/19 11:42:05;;;;;;;2.90;2.47;;;;;;;30.91;42.59;99004.75;4593665;31;20499;-94
2023/07/19 11:44:50;;;;;;;3.00;2.75;;;;;;;30.77;41.46;98995.97;4664716;30;20077;-94
2023/07/19 11:47:16;;;;;;;4.45;2.85;;;;;;;30.67;41.92;99006.31;4674503;30;20061;-92
2023/07/19 11:49:41;;;;;;;3.75;2.78;;;;;;;30.57;41.64;99000.63;4702774;30;20041;-95
2023/07/19 11:52:08;;;;;;;4.88;2.28;;;;;;;30.27;41.54;98977.03;4733191;30;20053;-94
2023/07/19 11:54:55;;;;;;;4.25;2.58;;;;;;;30.01;41.27;98947.59;4733613;30;20150;-94
2023/07/19 11:57:42;;;;;;;4.28;3.10;;;;;;;30.13;41.31;98994.22;4743398;30;20052;-94
2023/07/19 12:00:27;;;;;;;2.40;2.20;;;;;;;30.12;42.19;98992.56;4763555;30;20251;-94
2023/07/19 12:02:52;;;;;;;3.65;3.10;;;;;;;30.16;42.74;98990.31;4768395;30;20039;-94
2023/07/19 12:05:39;;;;;;;3.28;2.40;;;;;;;30.17;41.87;98987.44;4768756;30;20043;-93
2023/07/19 12:08:06;;;;;;;3.90;2.55;;;;;;;30.19;42.02;98985.34;4815914;29;20060;-94
2023/07/19 12:10:31;;;;;;;3.53;3.08;;;;;;;30.28;41.17;98992.09;4844078;29;20518;-94
2023/07/19 12:12:57;;;;;;;3.95;2.60;;;;;;;30.35;42.20;98984.00;4866747;29;20064;-94
2023/07/19 12:15:23;;;;;;;3.17;2.40;;;;;;;30.43;41.59;98996.38;4964200;28;20029;-93
2023/07/19 12:17:49;;;;;;;4.30;2.47;;;;;;;30.37;41.63;98981.91;5014843;28;20434;-94
2023/07/19 12:20:15;;;;;;;3.38;2.50;;;;;;;30.38;41.20;98961.25;5015038;28;20441;-93
2023/07/19 12:22:42;;;;;;;3.65;2.35;;;;;;;30.56;40.52;98977.47;4998232;28;20048;-94
2023/07/19 12:25:09;;;;;;;3.38;2.85;;;;;;;30.61;40.18;98976.81;5014740;28;20069;-93
2023/07/19 12:27:35;;;;;;;4.68;2.55;;;;;;;30.65;40.59;98973.47;5015353;28;20042;-94
2023/07/19 12:30:00;;;;;;;5.60;2.65;;;;;;;30.68;40.21;98972.22;5034557;28;20036;-93
2023/07/19 12:32:26;;;;;;;4.80;2.55;;;;;;;30.63;40.53;98958.59;5034381;28;20420;-93
2023/07/19 12:34:52;;;;;;;4.25;2.53;;;;;;;30.77;40.59;98969.09;5044460;28;20033;-93
2023/07/19 12:37:17;;;;;;;2.95;2.45;;;;;;;30.72;40.27;98955.47;5053937;28;20040;-94
2023/07/19 12:39:43;;;;;;;4.80;2.60;;;;;;;30.74;39.86;98963.31;5059037;28;20076;-92
2023/07/19 12:42:10;;;;;;;4.85;2.47;;;;;;;30.68;39.15;98973.06;5075487;28;20070;-94
2023/07/19 12:44:36;;;;;;;2.58;2.35;;;;;;;30.54;40.41;98966.94;5075589;28;20066;-95
2023/07/19 12:47:03;;;;;;;3.22;2.80;;;;;;;30.53;40.63;98970.66;5075147;28;20055;-95
2023/07/19 12:49:28;;;;;;;4.57;2.80;;;;;;;30.39;40.45;98947.63;5075080;28;20043;-94
2023/07/19 12:51:53;;;;;;;3.47;2.40;;;;;;;30.63;40.65;98974.72;5075191;28;20487;-94
2023/07/19 12:54:19;;;;;;;4.40;2.88;;;;;;;30.61;39.76;98974.97;5075094;28;20498;-94
2023/07/19 12:56:45;;;;;;;6.05;2.47;;;;;;;30.47;38.63;98941.16;5074979;28;20036;-94
2023/07/19 12:59:10;;;;;;;2.50;2.30;;;;;;;30.54;38.64;98961.56;5074722;28;20024;-94
2023/07/19 13:01:40;;;;;;;3.22;2.55;;;;;;;30.53;39.61;98961.78;5075197;28;20032;-95
2023/07/19 13:04:06;;;;;;;3.63;2.53;;;;;;;30.56;39.35;98945.22;5071954;28;20725;-94
2023/07/19 13:06:54;;;;;;;4.10;2.63;;;;;;;30.53;39.10;98946.47;5074748;28;20028;-95
2023/07/19 13:09:20;;;;;;;2.50;2.30;;;;;;;30.55;39.46;98939.03;5033163;28;20041;-94
2023/07/19 13:11:45;;;;;;;3.63;2.33;;;;;;;30.49;38.94;98931.00;5033743;28;20519;-94
2023/07/19 13:14:13;;;;;;;2.72;2.28;;;;;;;30.47;39.20;98939.28;5033845;28;20370;-94
2023/07/19 13:16:38;;;;;;;3.60;2.80;;;;;;;30.46;39.67;98939.50;5033780;28;20037;-94
2023/07/19 13:19:04;;;;;;;5.93;2.53;;;;;;;30.41;40.40;98932.09;5047773;28;20037;-94
2023/07/19 13:21:29;;;;;;;3.25;2.40;;;;;;;30.45;40.37;98943.22;5052848;28;20141;-93
2023/07/19 13:23:55;;;;;;;4.28;2.38;;;;;;;30.43;40.18;98931.88;5055697;28;20513;-93
2023/07/19 13:26:40;;;;;;;6.03;2.85;;;;;;;30.47;39.26;98936.59;5049969;28;20036;-94
2023/07/19 13:29:06;;;;;;;3.78;3.42;;;;;;;30.23;39.34;98889.03;5049448;28;20048;-94